X  Schlie├čen METAR Luftfahrt Wetterdaten     EDVE Braunschweig-Wolfsburg Airport
Temperatur
1°C Temperatur
0°C Taupunkt
93% Feuchtigkeit



Wind
21 KM/S
13 MPS
6 M/S
11 KTS



330°
NNW
Aktuelle Wetterlage

Regenschauer Schnee Regenschauer Schnee
Luftdruck 1016.92 (hPa) - 30.03 (inHg)
Sichtweite 0.7 (Meile) - 1.2 (Km)
Flughafen
Flughafen Code EDVE

Position : Braunschweig-Wolfsburg Airport
Entfernung: 35 (Km)

Metar:
EDVE 271320Z 33011KT 290V010 1200 R26/1900D SHSN VV/// 01/M00 Q1017

Zeit: 27-03-2023 13:20 CEST